createdAt,value
2023-02-23T14:14:37.556Z,15.27
2023-02-23T14:17:42.669Z,15.60
2023-02-23T14:20:47.727Z,14.90
2023-02-23T14:23:37.569Z,14.80
2023-02-23T14:27:10.197Z,13.97
2023-02-23T14:30:22.291Z,15.77
2023-02-23T14:33:50.135Z,15.00
2023-02-23T14:36:39.092Z,15.27
2023-02-23T14:39:27.651Z,15.47
2023-02-23T14:42:22.155Z,14.60
2023-02-23T14:45:19.572Z,13.53
2023-02-23T14:48:08.345Z,13.53
2023-02-23T14:51:16.574Z,14.17
2023-02-23T14:54:11.433Z,15.53
2023-02-23T14:56:59.541Z,14.63
2023-02-23T14:59:47.746Z,14.50
2023-02-23T15:02:40.749Z,14.03
2023-02-23T15:05:38.691Z,14.57
2023-02-23T19:12:39.005Z,18.92
2023-02-23T19:15:25.859Z,20.90
2023-02-23T19:18:12.583Z,20.43
2023-02-23T19:21:00.773Z,17.00
2023-02-23T19:23:47.619Z,16.70
2023-02-23T19:26:35.581Z,20.03
2023-02-23T19:29:22.335Z,15.87
2023-02-23T19:32:09.548Z,15.67
2023-02-23T19:34:56.436Z,29.60
2023-02-23T19:37:49.553Z,19.90
2023-02-23T19:40:36.766Z,19.00
2023-02-23T19:43:23.596Z,19.50
2023-02-23T19:46:12.057Z,21.17
2023-02-23T19:48:58.909Z,26.33
2023-02-23T19:51:45.318Z,26.60
2023-02-23T19:54:34.143Z,24.20
2023-02-23T19:57:21.158Z,22.67
2023-02-23T20:00:12.182Z,22.43
2023-02-23T20:03:03.478Z,23.50
2023-02-23T20:05:50.418Z,20.93
2023-02-23T20:08:37.280Z,19.47
2023-02-23T20:11:25.755Z,20.33
2023-02-23T20:14:12.513Z,18.43
2023-02-23T20:16:58.880Z,18.67
2023-02-23T20:19:45.721Z,18.67
2023-02-23T20:22:33.409Z,18.27
2023-02-23T20:25:21.133Z,19.17
2023-02-23T20:28:09.160Z,18.47
2023-02-23T20:30:56.071Z,18.13
2023-02-23T20:33:43.129Z,20.00
2023-02-23T20:36:30.024Z,19.33
2023-02-23T20:39:17.866Z,17.50
2023-02-23T20:42:04.654Z,18.87
2023-02-23T20:44:53.472Z,18.63
2023-02-23T20:47:40.125Z,17.77
2023-02-23T20:50:28.701Z,16.83
2023-02-23T20:53:15.334Z,16.57
2023-02-23T20:56:05.249Z,17.30
2023-02-23T20:58:54.326Z,16.30
2023-02-23T21:01:44.963Z,17.27
2023-02-23T21:04:32.150Z,17.23
2023-02-23T21:07:18.733Z,17.33
2023-02-23T21:10:07.737Z,17.07
2023-02-23T21:12:55.939Z,19.13
2023-02-23T21:15:43.898Z,19.33
2023-02-23T21:18:32.522Z,19.67
2023-02-23T21:21:19.543Z,21.97
2023-02-23T21:24:06.434Z,22.13
2023-02-23T21:26:53.451Z,23.43
2023-02-23T21:29:41.006Z,24.03
2023-02-23T21:32:30.975Z,24.47
2023-02-23T21:35:19.848Z,26.70
2023-02-23T21:38:08.287Z,25.83
2023-02-23T21:40:54.735Z,24.20
2023-02-23T21:43:43.306Z,25.10
2023-02-23T21:46:30.091Z,29.70
2023-02-23T21:49:17.400Z,28.40
2023-02-23T21:52:05.306Z,26.00
2023-02-23T21:54:52.624Z,26.87
2023-02-23T21:57:39.387Z,26.13
2023-02-23T22:00:28.076Z,26.40
2023-02-23T22:03:14.799Z,26.80
2023-02-23T22:06:01.840Z,31.90
2023-02-23T22:08:50.613Z,25.77
2023-02-23T22:11:37.205Z,25.43
2023-02-23T22:14:23.979Z,22.83
2023-02-23T22:17:11.395Z,24.00
2023-02-23T22:19:58.065Z,23.60
2023-02-23T22:22:44.754Z,23.23
2023-02-23T22:25:32.381Z,21.63
2023-02-23T22:28:19.125Z,21.30
2023-02-23T22:31:08.362Z,20.50
2023-02-23T22:33:55.111Z,22.10
2023-02-23T22:36:41.991Z,23.63
2023-02-23T22:39:33.250Z,24.23
2023-02-23T22:42:24.366Z,25.03
2023-02-23T22:45:12.140Z,26.17
2023-02-23T22:48:01.598Z,22.97
2023-02-23T22:50:48.615Z,23.60
2023-02-23T22:53:35.155Z,21.77
2023-02-23T22:56:21.910Z,24.20
2023-02-23T22:59:10.858Z,21.90
2023-02-23T23:01:57.607Z,24.60
2023-02-23T23:04:44.460Z,23.57
2023-02-23T23:07:32.370Z,21.80
2023-02-23T23:10:19.893Z,23.83
2023-02-23T23:13:07.123Z,22.90
2023-02-23T23:16:00.370Z,22.90
2023-02-23T23:18:55.208Z,23.77
2023-02-23T23:21:44.114Z,24.10
2023-02-23T23:24:30.941Z,21.77
2023-02-23T23:27:19.753Z,21.17
2023-02-23T23:30:07.355Z,21.37
2023-02-23T23:32:55.645Z,22.30
2023-02-23T23:35:42.742Z,22.10
2023-02-23T23:38:29.927Z,22.77
2023-02-23T23:41:17.723Z,22.90
2023-02-23T23:44:05.668Z,22.83
2023-02-23T23:46:52.880Z,20.40
2023-02-23T23:49:42.363Z,21.97
2023-02-23T23:52:29.976Z,20.50
2023-02-23T23:55:18.089Z,21.63
2023-02-23T23:58:06.149Z,22.67
